Salt Lake City, Utah
Traffic Map
Current Weather Conditions
Salt Lake City, Utah
Few Clouds
Few Clouds
25°
Feels Like: 25°
Wind Chill: 25° Ceiling: Unl
Heat Index: 25° Visibility: 10mi
Dew Point: Wind: 12mph
Humidity: 22% Direction: 120° (ESE)
Pressure: 30.11in Gusts: 0mph
Raw Report DataKSLC 231253Z 12010KT 10SM FEW110 FEW180 25/02 A3011 RMK AO2 SLP130 FU FEW110 FU DSNT W-NW T02500017
Traffic Incident Summary
Active as of:
Severity:
Category:
InformationThere was an issue retrieving the traffic information for this location. Please try a different location or try again shortly.
Advertisements
Track Severe Weather on mobile